Vienna, VA (22027)

2:34 PM EDT on September 02, 2015 (GMT -0400)
Falls Church-Westwood Park | | Change Station
CLOSE
Current Station
Personal Weather Station
Location: Falls Church, VA
Elevation: 479 ft
Nearby Weather Stations

Elev 479 ft 38.89 °N, 77.20 °W | Updated 8 seconds ago

Partly Cloudy
Partly Cloudy
93.7 °F
Feels Like 102 °F
N
3.0
Wind Variable Wind from WNW
Gusts 6.0 mph

Today
High -- | Low -- °F
--% Chance of Precip.
Yesterday
High -- | Low -- °F
Precip. -- in
6:38 AM 7:38 PM
Waning Gibbous, 78% visible
Pressure 30.00 in
Visibility 10.0 miles
Clouds Few 5500 ft
Mostly Cloudy 25000 ft
Heat Index 102 °F
Dew Point 72 °F
Humidity 49%
Rainfall 0.00 in
Snow Depth Not available.
UV 5 out of 12
Pollen 10.30 out of 12
Air Quality Not available.
Flu Activity Not available.
METAR KDCA 021752Z 01006KT 10SM FEW055 BKN250 33/19 A2999 RMK AO2 SLP157 T03330194 10333 20250 58017
Pressure 30.00 in
Visibility 10.0 miles
Clouds Few 5500 ft
Mostly Cloudy 25000 ft
Heat Index 102 °F
Dew Point 72 °F
Humidity 49%
Rainfall 0.00 in
Snow Depth Not available.
UV 5 out of 12
Pollen 10.30 out of 12
Air Quality Not available.
Flu Activity Not available.
METAR KDCA 021752Z 01006KT 10SM FEW055 BKN250 33/19 A2999 RMK AO2 SLP157 T03330194 10333 20250 58017

10-Day Weather Forecast

×

Almanac

Astronomy

Sep. 02, 2015 Rise Set
Actual Time
Civil Twilight
Nautical Twilight
Astronomical Twilight
Moon
Length of Visible Light
Length of Day
Tomorrow will be .
, % of the Moon is Illuminated

Today's Extremes

State Highs State Lows

Community

WunderPhotos

Upload Photos

1,851,793 photos uploaded!

WunderBlogs® & News

Nearby

Air Quality

  Air Quality AQ Index Pollutant
Not available.

Snow Depth

Station Depth Elevation

Earthquake Activity

City Distance Mag. Time & Date
Minimum magnitude displayed is 2.5.

Coastal Water Temperatures

Place Temperature

Stations

Nearby Weather Stations

Station Location Temp. Windchill Dew Point Humidity Wind Precip. Elev Updated Type